Time;durP1;ratioP1;P1;durP2;ratioP2;P2;SDS_P1;SDS_P2;PMS_P1;PMS_P2;Temp;Humidity;BMP_temperature;BMP_pressure;BME280_temperature;BME280_humidity;BME280_pressure;Samples;Min_cycle;Max_cycle;Signal;HPM_P1;HPM_P2
2022/08/05 00:00:36;;;;;;;;;;;;;;;;;;5072228;28;1906;-77
2022/08/05 00:03:04;;;;;;;;;;;;;;;;;;5063986;28;1297;-77
2022/08/05 00:05:30;;;;;;;;;;;;;;;;;;5067111;28;1483;-77
2022/08/05 00:07:56;;;;;;;;;;;;;;;;;;5069196;28;1426;-77
2022/08/05 00:10:22;;;;;;;;;;;;;;;;;;5065363;28;1474;-78
2022/08/05 00:12:49;;;;;;;;;;;;;;;;;;5069164;28;1292;-77
2022/08/05 00:15:15;;;;;;;;;;;;;;;;;;5072411;28;1470;-77
2022/08/05 00:17:41;;;;;;;;;;;;;;;;;;5061175;28;1324;-76
2022/08/05 00:20:09;;;;;;;;;;;;;;;;;;5063321;28;1972;-77
2022/08/05 00:22:35;;;;;;;;;;;;;;;;;;5066429;28;1366;-77
2022/08/05 00:25:01;;;;;;;;;;;;;;;;;;5063698;28;1629;-77
2022/08/05 00:27:29;;;;;;;;;;;;;;;;;;5065912;28;1508;-77
2022/08/05 00:29:55;;;;;;;;;;;;;;;;;;5070420;28;1213;-76
2022/08/05 00:32:21;;;;;;;;;;;;;;;;;;5073156;28;1366;-77
2022/08/05 00:34:48;;;;;;;;;;;;;;;;;;5064550;28;1467;-78
2022/08/05 00:37:15;;;;;;;;;;;;;;;;;;5070251;28;1669;-77
2022/08/05 00:39:42;;;;;;;;;;;;;;;;;;5069855;28;1906;-77
2022/08/05 00:42:08;;;;;;;;;;;;;;;;;;5059584;28;1500;-77
2022/08/05 00:44:34;;;;;;;;;;;;;;;;;;5063368;28;1428;-77
2022/08/05 00:47:00;;;;;;;;;;;;;;;;;;5063030;28;1459;-77
2022/08/05 00:49:26;;;;;;;;;;;;;;;;;;5068296;28;1364;-77
2022/08/05 00:51:52;;;;;;;;;;;;;;;;;;5061215;28;1588;-77
2022/08/05 00:54:20;;;;;;;;;;;;;;;;;;5068102;28;1419;-77
2022/08/05 00:56:46;;;;;;;;;;;;;;;;;;5060811;28;1366;-78
2022/08/05 00:59:12;;;;;;;;;;;;;;;;;;5067086;28;1914;-77
2022/08/05 01:01:39;;;;;;;;;;;;;;;;;;5062821;28;1389;-78
2022/08/05 01:04:05;;;;;;;;;;;;;;;;;;5060024;28;1651;-78
2022/08/05 01:06:31;;;;;;;;;;;;;;;;;;5056978;28;1501;-78
2022/08/05 01:08:59;;;;;;;;;;;;;;;;;;5068740;28;1339;-78
2022/08/05 01:11:28;;;;;;;;;;;;;;;;;;5066494;28;1418;-78
2022/08/05 01:13:57;;;;;;;;;;;;;;;;;;5061445;28;1474;-78
2022/08/05 01:16:24;;;;;;;;;;;;;;;;;;5054314;28;1475;-77
2022/08/05 01:18:53;;;;;;;;;;;;;;;;;;5068930;28;1150;-78
2022/08/05 01:21:24;;;;;;;;;;;;;;;;;;5067939;28;1977;-78
2022/08/05 01:23:55;;;;;;;;;;;;;;;;;;5060044;28;1423;-77
2022/08/05 01:26:25;;;;;;;;;;;;;;;;;;5060339;28;1313;-77
2022/08/05 01:28:54;;;;;;;;;;;;;;;;;;5060501;28;1391;-78
2022/08/05 01:31:22;;;;;;;;;;;;;;;;;;5057269;28;1439;-78
2022/08/05 01:33:49;;;;;;;;;;;;;;;;;;5063145;28;1415;-77
2022/08/05 01:36:16;;;;;;;;;;;;;;;;;;5062223;28;1475;-77
2022/08/05 01:38:43;;;;;;;;;;;;;;;;;;5058981;28;1447;-77
2022/08/05 01:41:09;;;;;;;;;;;;;;;;;;5068297;28;1910;-78
2022/08/05 01:43:36;;;;;;;;;;;;;;;;;;5061512;28;1875;-77
2022/08/05 01:46:03;;;;;;;;;;;;;;;;;;5061118;28;1424;-77
2022/08/05 01:48:29;;;;;;;;;;;;;;;;;;5065531;28;1177;-77
2022/08/05 01:50:55;;;;;;;;;;;;;;;;;;5067130;28;1477;-77
2022/08/05 01:53:21;;;;;;;;;;;;;;;;;;5070908;28;1154;-77
2022/08/05 01:55:48;;;;;;;;;;;;;;;;;;5062340;28;1619;-78
2022/08/05 01:58:14;;;;;;;;;;;;;;;;;;5071414;28;1174;-77
2022/08/05 02:00:42;;;;;;;;;;;;;;;;;;5068379;28;1994;-77
2022/08/05 02:03:10;;;;;;;;;;;;;;;;;;5060791;28;1443;-77
2022/08/05 02:05:37;;;;;;;;;;;;;;;;;;5066082;28;1280;-78
2022/08/05 02:08:03;;;;;;;;;;;;;;;;;;5062731;28;1366;-77
2022/08/05 02:10:31;;;;;;;;;;;;;;;;;;5066468;28;1487;-78
2022/08/05 02:12:58;;;;;;;;;;;;;;;;;;5066503;28;1413;-77
2022/08/05 02:15:25;;;;;;;;;;;;;;;;;;5063056;28;1391;-77
2022/08/05 02:17:52;;;;;;;;;;;;;;;;;;5052483;28;1471;-77
2022/08/05 02:20:20;;;;;;;;;;;;;;;;;;5064552;28;1925;-77
2022/08/05 02:22:46;;;;;;;;;;;;;;;;;;5064952;28;1317;-76
2022/08/05 02:25:14;;;;;;;;;;;;;;;;;;5068381;28;1459;-77
2022/08/05 02:27:40;;;;;;;;;;;;;;;;;;5059346;28;1423;-77
2022/08/05 02:30:07;;;;;;;;;;;;;;;;;;5067871;28;1468;-77
2022/08/05 02:32:33;;;;;;;;;;;;;;;;;;5060624;28;1585;-77
2022/08/05 02:35:00;;;;;;;;;;;;;;;;;;5061833;28;1439;-77
2022/08/05 02:37:27;;;;;;;;;;;;;;;;;;5058635;28;1490;-77
2022/08/05 02:39:53;;;;;;;;;;;;;;;;;;5065910;28;1997;-77
2022/08/05 02:42:19;;;;;;;;;;;;;;;;;;5069694;28;1439;-77
2022/08/05 02:44:46;;;;;;;;;;;;;;;;;;5062468;28;1732;-77
2022/08/05 02:47:12;;;;;;;;;;;;;;;;;;5062660;28;1454;-77
2022/08/05 02:49:38;;;;;;;;;;;;;;;;;;5065566;28;1142;-78
2022/08/05 02:52:05;;;;;;;;;;;;;;;;;;5062122;28;1427;-77
2022/08/05 02:54:33;;;;;;;;;;;;;;;;;;5065411;28;1411;-77
2022/08/05 02:56:59;;;;;;;;;;;;;;;;;;5065823;28;1406;-78
2022/08/05 02:59:26;;;;;;;;;;;;;;;;;;5059053;28;1383;-77
2022/08/05 03:01:56;;;;;;;;;;;;;;;;;;5065853;28;1910;-78
2022/08/05 03:04:23;;;;;;;;;;;;;;;;;;5071861;28;853;-77
2022/08/05 03:06:49;;;;;;;;;;;;;;;;;;5064994;28;1417;-77
2022/08/05 03:09:15;;;;;;;;;;;;;;;;;;5054793;28;1383;-77
2022/08/05 03:11:43;;;;;;;;;;;;;;;;;;5061814;28;1481;-78
2022/08/05 03:14:09;;;;;;;;;;;;;;;;;;5059464;28;1400;-77
2022/08/05 03:16:35;;;;;;;;;;;;;;;;;;5063443;28;1486;-77
2022/08/05 03:19:01;;;;;;;;;;;;;;;;;;5063770;28;1225;-77
2022/08/05 03:21:28;;;;;;;;;;;;;;;;;;5064403;28;1979;-77
2022/08/05 03:23:54;;;;;;;;;;;;;;;;;;5067438;28;1150;-77
2022/08/05 03:26:20;;;;;;;;;;;;;;;;;;5060534;28;1478;-77
2022/08/05 03:28:48;;;;;;;;;;;;;;;;;;5063475;28;1427;-77
2022/08/05 03:31:14;;;;;;;;;;;;;;;;;;5059085;28;1423;-77
2022/08/05 03:33:40;;;;;;;;;;;;;;;;;;5066915;28;1201;-79
2022/08/05 03:36:06;;;;;;;;;;;;;;;;;;5088287;22;3584;-73
2022/08/05 03:38:33;;;;;;;;;;;;;;;;;;5075729;28;1342;-73
2022/08/05 03:40:59;;;;;;;;;;;;;;;;;;5085766;28;1914;-73
2022/08/05 03:43:25;;;;;;;;;;;;;;;;;;5080192;28;1493;-73
2022/08/05 03:45:53;;;;;;;;;;;;;;;;;;5072722;28;1396;-73
2022/08/05 03:48:19;;;;;;;;;;;;;;;;;;5053846;28;1513;-73
2022/08/05 03:50:48;;;;;;;;;;;;;;;;;;5069983;28;1138;-72
2022/08/05 03:53:15;;;;;;;;;;;;;;;;;;5074488;28;1137;-72
2022/08/05 03:55:42;;;;;;;;;;;;;;;;;;5061520;28;1564;-73
2022/08/05 03:58:10;;;;;;;;;;;;;;;;;;5065525;28;1471;-72
2022/08/05 04:00:36;;;;;;;;;;;;;;;;;;5066503;28;1910;-74
2022/08/05 04:03:04;;;;;;;;;;;;;;;;;;5072114;28;1071;-73
2022/08/05 04:05:31;;;;;;;;;;;;;;;;;;5059762;28;1451;-72
2022/08/05 04:07:57;;;;;;;;;;;;;;;;;;5040491;28;1481;-72
2022/08/05 04:10:23;;;;;;;;;;;;;;;;;;5068884;28;1051;-72
2022/08/05 04:12:49;;;;;;;;;;;;;;;;;;5071365;28;1487;-72
2022/08/05 04:15:15;;;;;;;;;;;;;;;;;;5052438;28;1473;-73
2022/08/05 04:17:42;;;;;;;;;;;;;;;;;;5060042;28;1562;-73
2022/08/05 04:20:10;;;;;;;;;;;;;;;;;;5056460;28;1217;-73
2022/08/05 04:22:36;;;;;;;;;;;;;;;;;;5072971;28;1977;-74
2022/08/05 04:25:02;;;;;;;;;;;;;;;;;;5073976;28;1410;-74
2022/08/05 04:27:28;;;;;;;;;;;;;;;;;;5064131;28;1514;-73
2022/08/05 04:29:55;;;;;;;;;;;;;;;;;;5053973;28;933;-73
2022/08/05 04:32:21;;;;;;;;;;;;;;;;;;5054258;28;1296;-73
2022/08/05 04:34:47;;;;;;;;;;;;;;;;;;5054056;28;1317;-72
2022/08/05 04:37:14;;;;;;;;;;;;;;;;;;5054368;28;786;-72
2022/08/05 04:39:41;;;;;;;;;;;;;;;;;;5054295;28;948;-73
2022/08/05 04:42:07;;;;;;;;;;;;;;;;;;5035693;28;1914;-73
2022/08/05 04:44:33;;;;;;;;;;;;;;;;;;5053562;28;1338;-72
2022/08/05 04:47:00;;;;;;;;;;;;;;;;;;5053512;28;1269;-73
2022/08/05 04:49:26;;;;;;;;;;;;;;;;;;5053935;28;933;-74
2022/08/05 04:51:52;;;;;;;;;;;;;;;;;;5053452;28;1075;-73
2022/08/05 04:54:21;;;;;;;;;;;;;;;;;;5054071;28;1075;-73
2022/08/05 04:56:47;;;;;;;;;;;;;;;;;;5053689;28;1027;-73
2022/08/05 04:59:14;;;;;;;;;;;;;;;;;;5053601;28;972;-73
2022/08/05 05:01:41;;;;;;;;;;;;;;;;;;5053262;28;1918;-74
2022/08/05 05:04:07;;;;;;;;;;;;;;;;;;5053190;28;1079;-73
2022/08/05 05:06:33;;;;;;;;;;;;;;;;;;5053554;28;1385;-73
2022/08/05 05:08:59;;;;;;;;;;;;;;;;;;5035411;28;1156;-73
2022/08/05 05:11:27;;;;;;;;;;;;;;;;;;5035375;28;909;-73
2022/08/05 05:13:53;;;;;;;;;;;;;;;;;;5050853;28;1440;-74
2022/08/05 05:16:19;;;;;;;;;;;;;;;;;;5048986;28;1419;-73
2022/08/05 05:18:45;;;;;;;;;;;;;;;;;;5058613;28;1355;-74
2022/08/05 05:21:11;;;;;;;;;;;;;;;;;;5065009;28;1977;-73
2022/08/05 05:23:38;;;;;;;;;;;;;;;;;;5046587;28;1390;-74
2022/08/05 05:26:04;;;;;;;;;;;;;;;;;;5052569;28;1463;-74
2022/08/05 05:28:31;;;;;;;;;;;;;;;;;;5047578;28;1608;-73
2022/08/05 05:30:58;;;;;;;;;;;;;;;;;;5061808;28;1169;-73
2022/08/05 05:33:24;;;;;;;;;;;;;;;;;;5066280;28;897;-73
2022/08/05 05:35:50;;;;;;;;;;;;;;;;;;5068309;28;1506;-73
2022/08/05 05:38:17;;;;;;;;;;;;;;;;;;5044275;28;1420;-74
2022/08/05 05:40:43;;;;;;;;;;;;;;;;;;5058698;28;1910;-74
2022/08/05 05:43:09;;;;;;;;;;;;;;;;;;5039419;28;1326;-74
2022/08/05 05:45:37;;;;;;;;;;;;;;;;;;5045497;28;1444;-73
2022/08/05 05:48:04;;;;;;;;;;;;;;;;;;5064723;28;1428;-73
2022/08/05 05:50:31;;;;;;;;;;;;;;;;;;5061369;28;1395;-73
2022/08/05 05:52:57;;;;;;;;;;;;;;;;;;5068823;28;1185;-73
2022/08/05 05:55:23;;;;;;;;;;;;;;;;;;5072262;28;1317;-74
2022/08/05 05:57:49;;;;;;;;;;;;;;;;;;5065249;28;1459;-75
2022/08/05 06:00:16;;;;;;;;;;;;;;;;;;5044033;28;1515;-75
2022/08/05 06:02:44;;;;;;;;;;;;;;;;;;5058708;28;1910;-74
2022/08/05 06:05:11;;;;;;;;;;;;;;;;;;5072181;28;1344;-74
2022/08/05 06:07:37;;;;;;;;;;;;;;;;;;5065996;28;1475;-74
2022/08/05 06:10:04;;;;;;;;;;;;;;;;;;5067577;28;1403;-74
2022/08/05 06:12:30;;;;;;;;;;;;;;;;;;5071936;28;1180;-73
2022/08/05 06:14:56;;;;;;;;;;;;;;;;;;5069189;28;1459;-73
2022/08/05 06:17:22;;;;;;;;;;;;;;;;;;5039152;28;1723;-72
2022/08/05 06:19:50;;;;;;;;;;;;;;;;;;5052281;28;1424;-73
2022/08/05 06:22:22;;;;;;;;;;;;;;;;;;5060133;28;1981;-72
2022/08/05 06:24:48;;;;;;;;;;;;;;;;;;5050420;28;1493;-73
2022/08/05 06:27:14;;;;;;;;;;;;;;;;;;5047795;28;1485;-73
2022/08/05 06:29:40;;;;;;;;;;;;;;;;;;5049696;28;1311;-74
2022/08/05 06:32:06;;;;;;;;;;;;;;;;;;5038925;28;1356;-73
2022/08/05 06:34:33;;;;;;;;;;;;;;;;;;5047652;28;1425;-73
2022/08/05 06:37:00;;;;;;;;;;;;;;;;;;5040421;28;1482;-72
2022/08/05 06:39:26;;;;;;;;;;;;;;;;;;5043618;28;1560;-72
2022/08/05 06:41:53;;;;;;;;;;;;;;;;;;5056080;28;1922;-73
2022/08/05 06:44:19;;;;;;;;;;;;;;;;;;5080151;28;1144;-74
2022/08/05 06:46:45;;;;;;;;;;;;;;;;;;5084184;28;1360;-74
2022/08/05 06:49:11;;;;;;;;;;;;;;;;;;5061241;28;1622;-75
2022/08/05 06:51:37;;;;;;;;;;;;;;;;;;5051103;28;1515;-75
2022/08/05 06:54:05;;;;;;;;;;;;;;;;;;5051046;28;1249;-76
2022/08/05 06:56:32;;;;;;;;;;;;;;;;;;5071728;28;1449;-76
2022/08/05 06:58:58;;;;;;;;;;;;;;;;;;5065695;28;1430;-74
2022/08/05 07:01:24;;;;;;;;;;;;;;;;;;5056874;28;1945;-74
2022/08/05 07:03:50;;;;;;;;;;;;;;;;;;5071329;28;1145;-74
2022/08/05 07:06:16;;;;;;;;;;;;;;;;;;5032541;28;1502;-74
2022/08/05 07:08:43;;;;;;;;;;;;;;;;;;5022500;28;1295;-76
2022/08/05 07:11:11;;;;;;;;;;;;;;;;;;5031181;28;1012;-74
2022/08/05 07:19:04;;;;;;;;;;;;;;;;;;5058808;28;1452;-75
2022/08/05 07:21:31;;;;;;;;;;;;;;;;;;5048864;28;1971;-76
2022/08/05 07:23:57;;;;;;;;;;;;;;;;;;5049603;28;1063;-76
2022/08/05 07:26:24;;;;;;;;;;;;;;;;;;5049579;28;1574;-77
2022/08/05 07:28:50;;;;;;;;;;;;;;;;;;5061712;28;1618;-76
2022/08/05 07:31:17;;;;;;;;;;;;;;;;;;5038572;28;1448;-76
2022/08/05 07:33:43;;;;;;;;;;;;;;;;;;5053559;28;1423;-77
2022/08/05 07:36:09;;;;;;;;;;;;;;;;;;5063079;28;1429;-76
2022/08/05 07:38:36;;;;;;;;;;;;;;;;;;5064413;28;1184;-75
2022/08/05 07:41:03;;;;;;;;;;;;;;;;;;5058162;28;1071;-75
2022/08/05 07:43:30;;;;;;;;;;;;;;;;;;5040537;28;1914;-76
2022/08/05 07:45:57;;;;;;;;;;;;;;;;;;5055135;28;1484;-76
2022/08/05 07:48:23;;;;;;;;;;;;;;;;;;5064662;28;1414;-75
2022/08/05 07:50:49;;;;;;;;;;;;;;;;;;5059670;28;1437;-75
2022/08/05 07:53:15;;;;;;;;;;;;;;;;;;5052281;28;1197;-74
2022/08/05 07:55:41;;;;;;;;;;;;;;;;;;5034365;28;1577;-74
2022/08/05 07:58:07;;;;;;;;;;;;;;;;;;5044407;28;1293;-74
2022/08/05 08:00:35;;;;;;;;;;;;;;;;;;5052102;28;1139;-73
2022/08/05 08:03:02;;;;;;;;;;;;;;;;;;5059190;28;1977;-74
2022/08/05 08:05:28;;;;;;;;;;;;;;;;;;5069237;28;1475;-74
2022/08/05 08:07:55;;;;;;;;;;;;;;;;;;5051735;28;1107;-74
2022/08/05 08:10:21;;;;;;;;;;;;;;;;;;5052048;28;1450;-74
2022/08/05 08:12:47;;;;;;;;;;;;;;;;;;5061156;28;1408;-74
2022/08/05 08:15:13;;;;;;;;;;;;;;;;;;5053389;28;1465;-74
2022/08/05 08:17:41;;;;;;;;;;;;;;;;;;5058906;28;1139;-74
2022/08/05 08:20:07;;;;;;;;;;;;;;;;;;5061387;28;1145;-74
2022/08/05 08:22:33;;;;;;;;;;;;;;;;;;5034080;28;1981;-74
2022/08/05 08:25:00;;;;;;;;;;;;;;;;;;5041697;28;1484;-75
2022/08/05 08:27:26;;;;;;;;;;;;;;;;;;5058410;28;1649;-74
2022/08/05 08:29:52;;;;;;;;;;;;;;;;;;5063540;28;1589;-74
2022/08/05 08:32:18;;;;;;;;;;;;;;;;;;5059210;28;1166;-74
2022/08/05 08:34:46;;;;;;;;;;;;;;;;;;5034774;28;1484;-74
2022/08/05 08:37:12;;;;;;;;;;;;;;;;;;5055539;28;1438;-75
2022/08/05 08:39:38;;;;;;;;;;;;;;;;;;5063838;28;1419;-74
2022/08/05 08:42:05;;;;;;;;;;;;;;;;;;5041988;28;1910;-74
2022/08/05 08:44:31;;;;;;;;;;;;;;;;;;5054615;28;2131;-75
2022/08/05 08:46:58;;;;;;;;;;;;;;;;;;5044353;28;1440;-75
2022/08/05 08:49:24;;;;;;;;;;;;;;;;;;5055061;28;1415;-75
2022/08/05 08:51:54;;;;;;;;;;;;;;;;;;5053474;28;1427;-75
2022/08/05 08:54:21;;;;;;;;;;;;;;;;;;5062566;28;1291;-74
2022/08/05 08:56:47;;;;;;;;;;;;;;;;;;5055184;28;1401;-75
2022/08/05 08:59:13;;;;;;;;;;;;;;;;;;5072536;28;1059;-75
2022/08/05 09:01:41;;;;;;;;;;;;;;;;;;5054462;28;1135;-73
2022/08/05 09:04:08;;;;;;;;;;;;;;;;;;5066051;28;1906;-73
2022/08/05 09:06:34;;;;;;;;;;;;;;;;;;5071508;28;1392;-75
2022/08/05 09:09:01;;;;;;;;;;;;;;;;;;5070915;28;1414;-72
2022/08/05 09:11:27;;;;;;;;;;;;;;;;;;5055708;28;1641;-71
2022/08/05 09:13:54;;;;;;;;;;;;;;;;;;5037226;28;1421;-72
2022/08/05 09:16:20;;;;;;;;;;;;;;;;;;5052769;28;1334;-72
2022/08/05 09:18:47;;;;;;;;;;;;;;;;;;5052575;28;818;-71
2022/08/05 09:21:13;;;;;;;;;;;;;;;;;;5052178;28;1079;-72
2022/08/05 09:23:40;;;;;;;;;;;;;;;;;;5052308;28;1910;-72
2022/08/05 09:26:08;;;;;;;;;;;;;;;;;;5051822;28;1476;-72
2022/08/05 09:28:34;;;;;;;;;;;;;;;;;;5072523;28;940;-72
2022/08/05 09:31:03;;;;;;;;;;;;;;;;;;5070869;28;1079;-72
2022/08/05 09:33:30;;;;;;;;;;;;;;;;;;5070320;28;1476;-73
2022/08/05 09:35:57;;;;;;;;;;;;;;;;;;5072125;28;1407;-72
2022/08/05 09:38:23;;;;;;;;;;;;;;;;;;5053255;28;1495;-72
2022/08/05 09:40:49;;;;;;;;;;;;;;;;;;5064781;28;1431;-72
2022/08/05 09:43:30;;;;;;;;;;;;;;;;;;5063118;28;1907;-73
2022/08/05 09:45:56;;;;;;;;;;;;;;;;;;5054772;28;1478;-73
2022/08/05 09:48:25;;;;;;;;;;;;;;;;;;5065026;28;1454;-73
2022/08/05 09:50:52;;;;;;;;;;;;;;;;;;5067492;28;1395;-73
2022/08/05 09:53:18;;;;;;;;;;;;;;;;;;5053769;28;1201;-73
2022/08/05 09:55:44;;;;;;;;;;;;;;;;;;5071567;28;1324;-73
2022/08/05 09:58:11;;;;;;;;;;;;;;;;;;5071158;28;1189;-73
2022/08/05 10:00:38;;;;;;;;;;;;;;;;;;5067104;28;1392;-72
2022/08/05 10:03:08;;;;;;;;;;;;;;;;;;5063239;28;1979;-73
2022/08/05 10:05:35;;;;;;;;;;;;;;;;;;5033824;28;1395;-72
2022/08/05 10:08:02;;;;;;;;;;;;;;;;;;5067927;28;1151;-72
2022/08/05 10:10:31;;;;;;;;;;;;;;;;;;5039675;28;1472;-73
2022/08/05 10:12:58;;;;;;;;;;;;;;;;;;5067935;28;1415;-72
2022/08/05 10:15:25;;;;;;;;;;;;;;;;;;5064660;28;1404;-72
2022/08/05 10:18:18;;;;;;;;;;;;;;;;;;5057154;28;949;-72
2022/08/05 10:20:46;;;;;;;;;;;;;;;;;;5014641;28;1460;-72
2022/08/05 10:23:13;;;;;;;;;;;;;;;;;;5062505;28;1981;-72
2022/08/05 10:25:40;;;;;;;;;;;;;;;;;;5051485;28;1336;-72
2022/08/05 10:28:06;;;;;;;;;;;;;;;;;;5033371;28;1218;-72
2022/08/05 10:30:32;;;;;;;;;;;;;;;;;;5050803;28;1390;-71
2022/08/05 10:32:59;;;;;;;;;;;;;;;;;;5053327;28;1539;-71
2022/08/05 10:35:25;;;;;;;;;;;;;;;;;;5058092;28;1412;-71
2022/08/05 10:37:53;;;;;;;;;;;;;;;;;;5067130;28;1126;-72
2022/08/05 10:40:20;;;;;;;;;;;;;;;;;;5060434;28;1407;-72
2022/08/05 10:42:47;;;;;;;;;;;;;;;;;;5050054;28;1918;-72
2022/08/05 10:45:13;;;;;;;;;;;;;;;;;;5050848;28;1504;-71
2022/08/05 10:47:43;;;;;;;;;;;;;;;;;;5038772;28;1450;-71
2022/08/05 10:50:12;;;;;;;;;;;;;;;;;;5061921;28;1418;-72
2022/08/05 10:52:40;;;;;;;;;;;;;;;;;;5041973;28;1223;-72
2022/08/05 10:55:09;;;;;;;;;;;;;;;;;;5049848;28;1352;-72
2022/08/05 10:57:36;;;;;;;;;;;;;;;;;;5037192;28;1112;-72
2022/08/05 11:00:10;;;;;;;;;;;;;;;;;;5053812;28;1427;-71
2022/08/05 11:02:36;;;;;;;;;;;;;;;;;;5065627;28;1918;-71
2022/08/05 11:05:03;;;;;;;;;;;;;;;;;;5062934;28;1654;-71
2022/08/05 11:07:30;;;;;;;;;;;;;;;;;;5049741;28;1399;-71
2022/08/05 11:09:56;;;;;;;;;;;;;;;;;;5070353;28;1165;-71
2022/08/05 11:12:43;;;;;;;;;;;;;;;;;;5070336;28;1099;-71
2022/08/05 11:15:16;;;;;;;;;;;;;;;;;;5070195;28;1631;-71
2022/08/05 11:17:43;;;;;;;;;;;;;;;;;;5061243;28;1494;-71
2022/08/05 11:20:24;;;;;;;;;;;;;;;;;;5068867;28;1117;-70
2022/08/05 11:22:51;;;;;;;;;;;;;;;;;;5051251;28;1982;-71
2022/08/05 11:25:32;;;;;;;;;;;;;;;;;;5069075;28;1384;-70
2022/08/05 11:28:17;;;;;;;;;;;;;;;;;;5070459;28;1070;-70
2022/08/05 11:31:02;;;;;;;;;;;;;;;;;;5052609;28;901;-70
2022/08/05 11:33:31;;;;;;;;;;;;;;;;;;5070582;28;1554;-71
2022/08/05 11:35:58;;;;;;;;;;;;;;;;;;5070455;28;1318;-70
2022/08/05 11:38:39;;;;;;;;;;;;;;;;;;5070785;28;849;-71
2022/08/05 11:41:05;;;;;;;;;;;;;;;;;;5069598;28;1188;-71
2022/08/05 11:43:31;;;;;;;;;;;;;;;;;;5070110;28;1914;-70
2022/08/05 11:45:58;;;;;;;;;;;;;;;;;;5070329;28;1395;-71
2022/08/05 11:48:24;;;;;;;;;;;;;;;;;;5070327;28;1087;-71
2022/08/05 11:50:52;;;;;;;;;;;;;;;;;;5052052;28;1187;-70
2022/08/05 11:53:18;;;;;;;;;;;;;;;;;;5070258;28;1078;-71
2022/08/05 11:55:54;;;;;;;;;;;;;;;;;;5073171;28;1393;-71
2022/08/05 11:58:30;;;;;;;;;;;;;;;;;;5074359;28;901;-71
2022/08/05 12:01:03;;;;;;;;;;;;;;;;;;5073544;28;817;-71
2022/08/05 12:03:29;;;;;;;;;;;;;;;;;;5073640;28;1981;-71
2022/08/05 12:05:59;;;;;;;;;;;;;;;;;;5073814;28;1410;-70
2022/08/05 12:08:25;;;;;;;;;;;;;;;;;;5074161;28;1075;-70
2022/08/05 12:10:51;;;;;;;;;;;;;;;;;;5055693;28;1507;-70
2022/08/05 12:13:17;;;;;;;;;;;;;;;;;;5073825;28;1063;-71
2022/08/05 12:15:43;;;;;;;;;;;;;;;;;;5074324;28;1396;-71
2022/08/05 12:18:10;;;;;;;;;;;;;;;;;;5056048;28;1271;-71
2022/08/05 12:20:37;;;;;;;;;;;;;;;;;;5073516;28;1110;-70
2022/08/05 12:23:11;;;;;;;;;;;;;;;;;;5047971;28;1910;-70
2022/08/05 12:25:48;;;;;;;;;;;;;;;;;;5053825;28;1318;-70
2022/08/05 12:28:20;;;;;;;;;;;;;;;;;;5053708;28;1135;-71
2022/08/05 12:30:47;;;;;;;;;;;;;;;;;;5052207;28;1804;-71
2022/08/05 12:33:13;;;;;;;;;;;;;;;;;;5053481;28;1385;-71
2022/08/05 12:35:39;;;;;;;;;;;;;;;;;;5053360;28;1333;-71
2022/08/05 12:38:06;;;;;;;;;;;;;;;;;;5053189;28;786;-71
2022/08/05 12:40:33;;;;;;;;;;;;;;;;;;5053333;28;945;-71
2022/08/05 12:42:59;;;;;;;;;;;;;;;;;;5052895;28;1910;-71
2022/08/05 12:45:25;;;;;;;;;;;;;;;;;;5053233;28;1332;-71
2022/08/05 12:47:52;;;;;;;;;;;;;;;;;;5052543;28;1531;-71
2022/08/05 12:50:18;;;;;;;;;;;;;;;;;;5035372;28;1321;-71
2022/08/05 12:52:53;;;;;;;;;;;;;;;;;;5053018;28;961;-72
2022/08/05 12:55:20;;;;;;;;;;;;;;;;;;5053393;28;1422;-72
2022/08/05 12:57:47;;;;;;;;;;;;;;;;;;5035130;28;1275;-72
2022/08/05 13:00:19;;;;;;;;;;;;;;;;;;5035614;28;1319;-71
2022/08/05 13:02:45;;;;;;;;;;;;;;;;;;5052936;28;953;-71
2022/08/05 13:05:11;;;;;;;;;;;;;;;;;;5052847;28;1993;-71
2022/08/05 13:07:39;;;;;;;;;;;;;;;;;;5035117;28;1159;-72
2022/08/05 13:10:05;;;;;;;;;;;;;;;;;;5052768;28;1139;-71
2022/08/05 13:12:31;;;;;;;;;;;;;;;;;;5034163;28;1433;-72
2022/08/05 13:15:00;;;;;;;;;;;;;;;;;;5034765;28;1929;-71
2022/08/05 13:17:27;;;;;;;;;;;;;;;;;;5052814;28;1063;-72
2022/08/05 13:19:57;;;;;;;;;;;;;;;;;;5052631;28;1123;-72
2022/08/05 13:22:24;;;;;;;;;;;;;;;;;;5034616;28;1143;-72
2022/08/05 13:24:50;;;;;;;;;;;;;;;;;;5052501;28;1914;-72
2022/08/05 13:27:23;;;;;;;;;;;;;;;;;;5032781;28;1395;-71
2022/08/05 13:29:49;;;;;;;;;;;;;;;;;;5060176;28;1403;-72
2022/08/05 13:32:17;;;;;;;;;;;;;;;;;;5066087;28;1389;-73
2022/08/05 13:34:43;;;;;;;;;;;;;;;;;;5067275;28;1475;-73
2022/08/05 13:37:09;;;;;;;;;;;;;;;;;;5054398;28;1333;-73
2022/08/05 13:39:35;;;;;;;;;;;;;;;;;;5071374;28;979;-73
2022/08/05 13:42:02;;;;;;;;;;;;;;;;;;5062701;28;1367;-74
2022/08/05 13:44:28;;;;;;;;;;;;;;;;;;5043151;28;1934;-73
2022/08/05 13:46:54;;;;;;;;;;;;;;;;;;5050208;28;1369;-73
2022/08/05 13:49:21;;;;;;;;;;;;;;;;;;5056180;28;1147;-73
2022/08/05 13:51:48;;;;;;;;;;;;;;;;;;5071789;28;1228;-73
2022/08/05 13:54:15;;;;;;;;;;;;;;;;;;5067947;28;1488;-73
2022/08/05 13:56:42;;;;;;;;;;;;;;;;;;5066775;28;1368;-74
2022/08/05 13:59:08;;;;;;;;;;;;;;;;;;5072071;28;1131;-73
2022/08/05 14:01:35;;;;;;;;;;;;;;;;;;5071567;28;992;-74
2022/08/05 14:06:47;;;;;;;;;;;;;;;;;;5054000;28;1409;-73
2022/08/05 14:09:13;;;;;;;;;;;;;;;;;;5070416;28;1435;-73
2022/08/05 14:11:40;;;;;;;;;;;;;;;;;;5060258;28;1147;-73
2022/08/05 14:14:06;;;;;;;;;;;;;;;;;;5071578;28;1200;-73
2022/08/05 14:16:32;;;;;;;;;;;;;;;;;;5071626;28;1302;-73
2022/08/05 14:18:58;;;;;;;;;;;;;;;;;;5071173;28;1115;-72
2022/08/05 14:21:25;;;;;;;;;;;;;;;;;;5071178;28;1059;-73
2022/08/05 14:23:52;;;;;;;;;;;;;;;;;;5053660;28;1914;-73
2022/08/05 14:26:18;;;;;;;;;;;;;;;;;;5053617;28;1321;-73
2022/08/05 14:28:45;;;;;;;;;;;;;;;;;;5053770;28;933;-73
2022/08/05 14:31:11;;;;;;;;;;;;;;;;;;5056195;28;1414;-72
2022/08/05 14:33:37;;;;;;;;;;;;;;;;;;5066027;28;1400;-73
2022/08/05 14:36:03;;;;;;;;;;;;;;;;;;5061855;28;1475;-73
2022/08/05 14:38:30;;;;;;;;;;;;;;;;;;5071216;28;1555;-73
2022/08/05 14:40:57;;;;;;;;;;;;;;;;;;5064285;28;1484;-73
2022/08/05 14:43:23;;;;;;;;;;;;;;;;;;5044397;28;1393;-73
2022/08/05 14:45:50;;;;;;;;;;;;;;;;;;5058252;28;1938;-73
2022/08/05 14:48:16;;;;;;;;;;;;;;;;;;5053209;28;1148;-73
2022/08/05 14:50:42;;;;;;;;;;;;;;;;;;5041613;28;1284;-73
2022/08/05 14:53:08;;;;;;;;;;;;;;;;;;5049176;28;1452;-73
2022/08/05 14:55:35;;;;;;;;;;;;;;;;;;5058298;28;1408;-72
2022/08/05 14:58:02;;;;;;;;;;;;;;;;;;5068694;28;1250;-71
2022/08/05 15:00:29;;;;;;;;;;;;;;;;;;5052693;28;1471;-72
2022/08/05 15:02:55;;;;;;;;;;;;;;;;;;5050308;28;1289;-72
2022/08/05 15:05:21;;;;;;;;;;;;;;;;;;5057651;28;1993;-71
2022/08/05 15:07:47;;;;;;;;;;;;;;;;;;5055871;28;1414;-72
2022/08/05 15:10:13;;;;;;;;;;;;;;;;;;5065609;28;1122;-71
2022/08/05 15:12:39;;;;;;;;;;;;;;;;;;5068465;28;1055;-71
2022/08/05 15:15:08;;;;;;;;;;;;;;;;;;5068696;28;1333;-71
2022/08/05 15:17:34;;;;;;;;;;;;;;;;;;5062159;28;1385;-71
2022/08/05 15:20:01;;;;;;;;;;;;;;;;;;5068694;28;1231;-72
2022/08/05 15:22:27;;;;;;;;;;;;;;;;;;5059340;28;1403;-72
2022/08/05 15:24:54;;;;;;;;;;;;;;;;;;5058743;28;1925;-72
2022/08/05 15:27:20;;;;;;;;;;;;;;;;;;5062483;28;1400;-73
2022/08/05 15:29:46;;;;;;;;;;;;;;;;;;5066664;28;1697;-72
2022/08/05 15:32:14;;;;;;;;;;;;;;;;;;5032134;28;1234;-72
2022/08/05 15:34:40;;;;;;;;;;;;;;;;;;5050249;28;1489;-73
2022/08/05 15:37:06;;;;;;;;;;;;;;;;;;5050020;28;1201;-73
2022/08/05 15:39:32;;;;;;;;;;;;;;;;;;5050362;28;889;-73
2022/08/05 15:41:58;;;;;;;;;;;;;;;;;;5032148;28;1112;-73
2022/08/05 15:44:25;;;;;;;;;;;;;;;;;;5050184;28;2000;-73
2022/08/05 15:46:51;;;;;;;;;;;;;;;;;;5032449;28;1284;-72
2022/08/05 15:49:18;;;;;;;;;;;;;;;;;;5032571;28;1463;-73
2022/08/05 15:51:44;;;;;;;;;;;;;;;;;;5049907;28;993;-72
2022/08/05 15:54:11;;;;;;;;;;;;;;;;;;5050436;28;1075;-73
2022/08/05 15:56:37;;;;;;;;;;;;;;;;;;5050062;28;1450;-73
2022/08/05 15:59:03;;;;;;;;;;;;;;;;;;5087638;22;4023;-77
2022/08/05 16:01:29;;;;;;;;;;;;;;;;;;5067429;28;1387;-77
2022/08/05 16:03:55;;;;;;;;;;;;;;;;;;5079585;28;1316;-77
2022/08/05 16:06:23;;;;;;;;;;;;;;;;;;5072247;28;1914;-76
2022/08/05 16:08:50;;;;;;;;;;;;;;;;;;5076969;28;1454;-76
2022/08/05 16:11:16;;;;;;;;;;;;;;;;;;5080001;28;1137;-76
2022/08/05 16:13:42;;;;;;;;;;;;;;;;;;5088487;28;839;-77
2022/08/05 16:16:10;;;;;;;;;;;;;;;;;;5088788;28;1051;-76
2022/08/05 16:18:37;;;;;;;;;;;;;;;;;;5088902;28;1392;-77
2022/08/05 16:21:03;;;;;;;;;;;;;;;;;;5088792;28;854;-77
2022/08/05 16:23:31;;;;;;;;;;;;;;;;;;5067123;28;1513;-77
2022/08/05 16:26:04;;;;;;;;;;;;;;;;;;5077234;28;1976;-77
2022/08/05 16:28:31;;;;;;;;;;;;;;;;;;5083985;28;1777;-76
2022/08/05 16:30:57;;;;;;;;;;;;;;;;;;5089392;28;1244;-77
2022/08/05 16:33:24;;;;;;;;;;;;;;;;;;5090208;28;1510;-76
2022/08/05 16:35:50;;;;;;;;;;;;;;;;;;5090850;28;1055;-76
2022/08/05 16:38:16;;;;;;;;;;;;;;;;;;5090217;28;1298;-77
2022/08/05 16:40:44;;;;;;;;;;;;;;;;;;5091995;28;905;-77
2022/08/05 16:43:10;;;;;;;;;;;;;;;;;;5093787;28;847;-76
2022/08/05 16:45:37;;;;;;;;;;;;;;;;;;5084419;28;1973;-77
2022/08/05 16:48:03;;;;;;;;;;;;;;;;;;5073844;28;1301;-77
2022/08/05 16:50:29;;;;;;;;;;;;;;;;;;5081247;28;1578;-77
2022/08/05 16:52:55;;;;;;;;;;;;;;;;;;5078626;28;1365;-76
2022/08/05 16:55:22;;;;;;;;;;;;;;;;;;5081717;28;1576;-76
2022/08/05 16:57:49;;;;;;;;;;;;;;;;;;5084964;28;1322;-76
2022/08/05 17:00:15;;;;;;;;;;;;;;;;;;5079975;28;1479;-76
2022/08/05 17:02:44;;;;;;;;;;;;;;;;;;5090680;28;1600;-76
2022/08/05 17:05:10;;;;;;;;;;;;;;;;;;5070967;28;1914;-75
2022/08/05 17:07:36;;;;;;;;;;;;;;;;;;5055684;28;1300;-75
2022/08/05 17:10:02;;;;;;;;;;;;;;;;;;5073367;28;1264;-75